Time;durP1;ratioP1;P1;durP2;ratioP2;P2;SDS_P1;SDS_P2;PMS_P1;PMS_P2;Temp;Humidity;BMP_temperature;BMP_pressure;BME280_temperature;BME280_humidity;BME280_pressure;Samples;Min_cycle;Max_cycle;Signal;HPM_P1;HPM_P2
2022/09/23 00:01:31;;;;;;;12.00;7.23;;;11.60;99.90;;;;;;5075124;28;20577;-65
2022/09/23 00:03:58;;;;;;;10.27;6.73;;;11.60;99.90;;;;;;5074841;28;20070;-66
2022/09/23 00:06:26;;;;;;;9.43;7.03;;;11.50;99.90;;;;;;5075150;28;20638;-65
2022/09/23 00:08:53;;;;;;;12.00;6.77;;;11.50;99.90;;;;;;5057014;28;20286;-66
2022/09/23 00:11:24;;;;;;;10.73;6.90;;;11.50;99.90;;;;;;5074932;28;20346;-65
2022/09/23 00:13:56;;;;;;;8.80;7.10;;;11.50;99.90;;;;;;5074377;28;20769;-66
2022/09/23 00:16:28;;;;;;;12.17;7.47;;;11.50;99.90;;;;;;5075006;28;20283;-65
2022/09/23 00:18:53;;;;;;;11.93;7.37;;;11.50;99.90;;;;;;5074584;28;20287;-65
2022/09/23 00:21:21;;;;;;;11.87;7.10;;;11.50;99.90;;;;;;5074804;28;20691;-65
2022/09/23 00:23:46;;;;;;;10.40;7.67;;;11.50;99.90;;;;;;5056718;28;20036;-65
2022/09/23 00:26:15;;;;;;;12.07;7.77;;;11.50;99.90;;;;;;5074637;28;20286;-65
2022/09/23 00:28:42;;;;;;;11.50;7.47;;;11.50;99.90;;;;;;5056779;28;20053;-65
2022/09/23 00:31:13;;;;;;;10.03;7.23;;;11.50;99.90;;;;;;5074162;28;20344;-65
2022/09/23 00:33:39;;;;;;;12.37;8.17;;;11.50;99.90;;;;;;5074481;28;20275;-65
2022/09/23 00:36:09;;;;;;;10.57;7.67;;;11.50;99.90;;;;;;5074121;28;20386;-66
2022/09/23 00:38:35;;;;;;;10.40;8.27;;;11.50;99.90;;;;;;5074337;28;20325;-66
2022/09/23 00:41:02;;;;;;;14.07;8.40;;;11.50;99.90;;;;;;5074005;28;20278;-66
2022/09/23 00:43:49;;;;;;;11.87;8.40;;;11.50;99.90;;;;;;5074359;28;20040;-66
2022/09/23 00:46:38;;;;;;;14.07;8.03;;;11.40;99.90;;;;;;5074530;28;20279;-66
2022/09/23 00:49:08;;;;;;;11.17;8.10;;;11.40;99.90;;;;;;5073939;28;20324;-65
2022/09/23 00:51:37;;;;;;;12.53;9.20;;;11.40;99.90;;;;;;5074103;28;20766;-65
2022/09/23 00:54:05;;;;;;;13.30;8.63;;;11.50;99.90;;;;;;5056184;28;20302;-66
2022/09/23 00:56:32;;;;;;;13.70;9.30;;;11.40;99.90;;;;;;5074067;28;20332;-66
2022/09/23 00:58:59;;;;;;;13.17;9.20;;;11.40;99.90;;;;;;5073670;28;20286;-66
2022/09/23 01:01:25;;;;;;;13.70;9.20;;;11.50;99.90;;;;;;5073941;28;20380;-66
2022/09/23 01:03:53;;;;;;;13.53;9.60;;;11.50;99.90;;;;;;5055948;28;20326;-68
2022/09/23 01:06:19;;;;;;;14.23;8.80;;;11.50;99.90;;;;;;5055975;28;20119;-66
2022/09/23 01:08:46;;;;;;;14.87;10.30;;;11.50;99.90;;;;;;5056022;28;20631;-66
2022/09/23 01:11:28;;;;;;;12.93;9.57;;;11.50;99.90;;;;;;5055438;28;20289;-66
2022/09/23 01:14:03;;;;;;;13.33;9.60;;;11.50;99.90;;;;;;5072782;28;20877;-67
2022/09/23 01:16:53;;;;;;;13.20;9.73;;;11.50;99.90;;;;;;5073498;28;20283;-66
2022/09/23 01:19:27;;;;;;;16.17;9.70;;;11.40;99.90;;;;;;5073746;28;20048;-66
2022/09/23 01:22:33;;;;;;;18.92;10.07;;;11.40;99.90;;;;;;5073607;28;20283;-68
2022/09/23 01:25:30;;;;;;;14.83;9.90;;;11.40;99.90;;;;;;5026090;28;20059;-66
2022/09/23 01:28:17;;;;;;;13.40;10.97;;;11.40;99.90;;;;;;5073135;28;20386;-66
2022/09/23 01:31:03;;;;;;;12.73;9.13;;;11.40;99.90;;;;;;5055834;28;20356;-66
2022/09/23 01:33:41;;;;;;;12.70;9.53;;;11.30;99.90;;;;;;5073271;28;20282;-66
2022/09/23 01:36:35;;;;;;;15.23;10.17;;;11.40;99.90;;;;;;5072692;28;20844;-66
2022/09/23 01:39:21;;;;;;;13.00;9.97;;;11.40;99.90;;;;;;5073012;28;20275;-66
2022/09/23 01:41:59;;;;;;;16.80;10.77;;;11.40;99.90;;;;;;5073243;28;20318;-66
2022/09/23 01:44:47;;;;;;;15.37;10.87;;;11.40;99.90;;;;;;5073051;28;20655;-66
2022/09/23 01:47:34;;;;;;;14.10;10.03;;;11.40;99.90;;;;;;5072866;28;20307;-66
2022/09/23 01:50:54;;;;;;;15.73;10.87;;;11.40;99.90;;;;;;5072938;28;20282;-66
2022/09/23 01:53:03;;;;;;;15.20;10.50;;;11.40;99.90;;;;;;5072468;28;20325;-66
2022/09/23 01:55:43;;;;;;;14.53;10.70;;;11.40;99.90;;;;;;5073053;28;20683;-66
2022/09/23 01:58:15;;;;;;;13.10;9.77;;;11.40;99.90;;;;;;5072738;28;20282;-66
2022/09/23 02:00:53;;;;;;;14.07;10.37;;;11.30;99.90;;;;;;5072806;28;20347;-66
2022/09/23 02:03:26;;;;;;;14.03;10.40;;;11.30;99.90;;;;;;5072948;28;20332;-66
2022/09/23 02:06:07;;;;;;;15.90;10.30;;;11.30;99.90;;;;;;5073040;28;20274;-66
2022/09/23 02:08:55;;;;;;;14.27;10.80;;;11.20;99.90;;;;;;5072894;28;20290;-66
2022/09/23 02:11:21;;;;;;;14.20;10.43;;;11.20;99.90;;;;;;5072634;28;20402;-66
2022/09/23 02:14:04;;;;;;;15.07;10.67;;;11.10;99.90;;;;;;5072546;28;20651;-66
2022/09/23 02:16:41;;;;;;;12.73;9.43;;;11.20;99.90;;;;;;5072783;28;20286;-66
2022/09/23 02:19:25;;;;;;;15.67;10.80;;;11.10;99.90;;;;;;5072596;28;20285;-66
2022/09/23 02:22:33;;;;;;;14.50;9.97;;;11.10;99.90;;;;;;5073064;28;20313;-66
2022/09/23 02:24:59;;;;;;;14.33;9.90;;;11.10;99.90;;;;;;5072914;28;20275;-66
2022/09/23 02:27:59;;;;;;;12.13;10.17;;;11.00;99.90;;;;;;5072422;28;20604;-66
2022/09/23 02:30:34;;;;;;;16.03;10.10;;;11.00;99.90;;;;;;5072399;28;20134;-66
2022/09/23 02:33:26;;;;;;;12.40;10.02;;;10.90;99.90;;;;;;5072585;28;20286;-66
2022/09/23 02:36:04;;;;;;;14.33;10.57;;;10.90;99.90;;;;;;5034000;28;20093;-66
2022/09/23 02:38:32;;;;;;;13.60;10.50;;;10.80;99.90;;;;;;5038587;28;20305;-66
2022/09/23 02:41:08;;;;;;;14.37;10.60;;;10.80;99.90;;;;;;5072567;28;20759;-66
2022/09/23 02:43:43;;;;;;;15.37;11.13;;;10.80;99.90;;;;;;5072799;28;20631;-66
2022/09/23 02:46:09;;;;;;;14.45;11.07;;;10.80;99.90;;;;;;5072241;28;20394;-66
2022/09/23 02:48:47;;;;;;;14.50;10.73;;;10.80;99.90;;;;;;5072394;28;20124;-66
2022/09/23 02:51:13;;;;;;;12.83;10.63;;;10.80;99.90;;;;;;5072257;28;20053;-66
2022/09/23 02:53:39;;;;;;;14.87;10.77;;;10.70;99.90;;;;;;5072416;28;20282;-66
2022/09/23 02:56:20;;;;;;;14.23;11.30;;;10.70;99.90;;;;;;5072138;28;20758;-67
2022/09/23 02:58:48;;;;;;;15.37;11.63;;;10.70;99.90;;;;;;5076351;28;20282;-66
2022/09/23 03:01:17;;;;;;;14.90;11.13;;;10.70;99.90;;;;;;5075863;28;20289;-66
2022/09/23 03:04:15;;;;;;;14.07;11.10;;;10.60;99.90;;;;;;5076181;28;20295;-66
2022/09/23 03:07:05;;;;;;;14.87;12.40;;;10.70;99.90;;;;;;5076392;28;20698;-66
2022/09/23 03:09:55;;;;;;;15.13;11.70;;;10.60;99.90;;;;;;5075895;28;20290;-66
2022/09/23 03:12:43;;;;;;;15.83;11.47;;;10.60;99.90;;;;;;5075822;28;20344;-66
2022/09/23 03:15:15;;;;;;;17.00;12.47;;;10.60;99.90;;;;;;5057389;28;20303;-66
2022/09/23 03:17:50;;;;;;;19.80;12.60;;;10.60;99.90;;;;;;5058222;28;20282;-66
2022/09/23 03:20:24;;;;;;;;;;;10.60;99.90;;;;;;5076090;28;20294;-66
2022/09/23 03:22:55;;;;;;;14.43;11.33;;;10.50;99.90;;;;;;5076204;28;19925;-66
2022/09/23 03:25:24;;;;;;;15.60;11.93;;;10.50;99.90;;;;;;5075573;28;20286;-66
2022/09/23 03:27:56;;;;;;;15.77;12.20;;;10.50;99.90;;;;;;5075733;28;20768;-66
2022/09/23 03:30:22;;;;;;;14.90;11.70;;;10.50;99.90;;;;;;5075378;28;20283;-66
2022/09/23 03:32:50;;;;;;;13.80;12.03;;;10.50;99.90;;;;;;5075668;28;20743;-66
2022/09/23 03:35:16;;;;;;;17.10;12.57;;;10.50;99.90;;;;;;5057553;28;20052;-66
2022/09/23 03:38:03;;;;;;;16.97;11.40;;;10.40;99.90;;;;;;5075502;28;20281;-66
2022/09/23 03:40:34;;;;;;;16.83;12.40;;;10.40;99.90;;;;;;5075286;28;20286;-66
2022/09/23 03:43:01;;;;;;;13.67;11.33;;;10.50;99.90;;;;;;5075611;28;20283;-66
2022/09/23 03:45:31;;;;;;;13.03;11.50;;;10.50;99.90;;;;;;5075122;28;20335;-66
2022/09/23 03:47:57;;;;;;;14.30;11.60;;;10.50;99.90;;;;;;5075265;28;20699;-66
2022/09/23 03:50:23;;;;;;;15.30;11.20;;;10.50;99.90;;;;;;5075141;28;20361;-66
2022/09/23 03:52:49;;;;;;;14.07;11.30;;;10.40;99.90;;;;;;5057733;28;20089;-66
2022/09/23 03:55:17;;;;;;;14.03;11.70;;;10.40;99.90;;;;;;5057176;28;20306;-66
2022/09/23 03:57:44;;;;;;;14.23;11.70;;;10.40;99.90;;;;;;5075225;28;20373;-66
2022/09/23 04:00:11;;;;;;;15.27;11.70;;;10.40;99.90;;;;;;5075038;28;20279;-66
2022/09/23 04:02:38;;;;;;;14.03;11.70;;;10.40;99.90;;;;;;5075007;28;20322;-66
2022/09/23 04:05:04;;;;;;;15.50;11.40;;;10.40;99.90;;;;;;5075047;28;20755;-66
2022/09/23 04:07:30;;;;;;;21.03;12.53;;;10.40;99.90;;;;;;5056223;28;20763;-66
2022/09/23 04:09:55;;;;;;;14.07;11.50;;;10.40;99.90;;;;;;5057432;28;20282;-66
2022/09/23 04:12:21;;;;;;;16.50;12.57;;;10.40;99.90;;;;;;5075046;28;20130;-66
2022/09/23 04:14:47;;;;;;;13.13;11.67;;;10.40;99.90;;;;;;5056957;28;20056;-66
2022/09/23 04:17:13;;;;;;;15.30;11.67;;;10.40;99.90;;;;;;5057235;28;20044;-66
2022/09/23 04:19:38;;;;;;;13.50;11.23;;;10.40;99.90;;;;;;5056980;28;20040;-66
2022/09/23 04:22:05;;;;;;;14.87;11.57;;;10.40;99.90;;;;;;5056808;28;20045;-66
2022/09/23 04:24:31;;;;;;;16.53;11.97;;;10.40;99.90;;;;;;5074341;28;20040;-66
2022/09/23 04:26:57;;;;;;;17.33;11.80;;;10.30;99.90;;;;;;5074455;28;20743;-66
2022/09/23 04:29:23;;;;;;;15.20;11.47;;;10.40;99.90;;;;;;5074277;28;20137;-66
2022/09/23 04:31:50;;;;;;;12.80;11.13;;;10.40;99.90;;;;;;5074235;28;20813;-66
2022/09/23 04:34:16;;;;;;;14.07;11.63;;;10.30;99.90;;;;;;5074313;28;20299;-68
2022/09/23 04:36:44;;;;;;;15.03;12.20;;;10.40;99.90;;;;;;5074661;28;20287;-66
2022/09/23 04:39:10;;;;;;;14.90;13.13;;;10.30;99.90;;;;;;5074565;28;20306;-66
2022/09/23 04:41:36;;;;;;;14.80;12.53;;;10.30;99.90;;;;;;5074073;28;20362;-66
2022/09/23 04:44:02;;;;;;;14.57;12.40;;;10.30;99.90;;;;;;5074248;28;20279;-66
2022/09/23 04:46:28;;;;;;;14.97;11.63;;;10.30;99.90;;;;;;5074026;28;20282;-66
2022/09/23 04:48:53;;;;;;;15.47;12.43;;;10.30;99.90;;;;;;5056459;28;20283;-66
2022/09/23 04:51:21;;;;;;;14.63;12.53;;;10.30;99.90;;;;;;5056106;28;20041;-66
2022/09/23 04:53:48;;;;;;;13.77;11.67;;;10.30;99.90;;;;;;5074112;28;20099;-66
2022/09/23 04:56:15;;;;;;;15.83;12.50;;;10.30;99.90;;;;;;5074100;28;20326;-66
2022/09/23 04:58:41;;;;;;;15.60;11.93;;;10.30;99.90;;;;;;5073682;28;20316;-66
2022/09/23 05:01:18;;;;;;;16.03;12.53;;;10.20;99.90;;;;;;5073999;28;20340;-66
2022/09/23 05:03:45;;;;;;;14.90;12.83;;;10.20;99.90;;;;;;5073672;28;20275;-66
2022/09/23 05:06:12;;;;;;;15.40;11.50;;;10.30;99.90;;;;;;5073803;28;20630;-66
2022/09/23 05:08:39;;;;;;;14.40;11.93;;;10.20;99.90;;;;;;5073583;28;20285;-66
2022/09/23 05:11:05;;;;;;;19.33;13.50;;;10.30;99.90;;;;;;5073740;28;20405;-66
2022/09/23 05:13:32;;;;;;;14.03;12.00;;;10.30;99.90;;;;;;5073229;28;20793;-66
2022/09/23 05:16:10;;;;;;;14.77;12.27;;;10.20;99.90;;;;;;5073909;28;20401;-66
2022/09/23 05:18:41;;;;;;;14.00;12.23;;;10.30;99.90;;;;;;5073246;28;20271;-66
2022/09/23 05:21:09;;;;;;;13.77;11.60;;;10.30;99.90;;;;;;5073237;28;20354;-66
2022/09/23 05:23:35;;;;;;;15.63;13.07;;;10.30;99.90;;;;;;5073337;28;20553;-66
2022/09/23 05:26:07;;;;;;;16.73;12.17;;;10.30;99.90;;;;;;5073534;28;20289;-66
2022/09/23 05:28:33;;;;;;;15.03;12.30;;;10.30;99.90;;;;;;5073169;28;20283;-66
2022/09/23 05:31:07;;;;;;;16.77;12.53;;;10.30;99.90;;;;;;5073582;28;20282;-66
2022/09/23 05:33:34;;;;;;;16.08;13.93;;;10.30;99.90;;;;;;5073200;28;20287;-66
2022/09/23 05:36:00;;;;;;;14.37;12.30;;;10.30;99.90;;;;;;5073299;28;20045;-66
2022/09/23 05:38:27;;;;;;;20.00;13.07;;;10.30;99.90;;;;;;5073108;28;20322;-66
2022/09/23 05:40:57;;;;;;;17.70;12.30;;;10.30;99.90;;;;;;5073302;28;20376;-66
2022/09/23 05:43:23;;;;;;;17.57;12.53;;;10.40;99.90;;;;;;5072958;28;20896;-66
2022/09/23 05:45:49;;;;;;;15.87;12.40;;;10.40;99.90;;;;;;5072981;28;20282;-66
2022/09/23 05:48:15;;;;;;;13.73;12.33;;;10.40;99.90;;;;;;5055225;28;20352;-66
2022/09/23 05:50:51;;;;;;;15.00;13.40;;;10.40;99.90;;;;;;5055257;28;20342;-66
2022/09/23 05:53:17;;;;;;;14.27;12.77;;;10.40;99.90;;;;;;5073090;28;20087;-66
2022/09/23 05:55:44;;;;;;;14.90;13.30;;;10.40;99.90;;;;;;5072579;28;20639;-66
2022/09/23 05:58:13;;;;;;;15.23;12.43;;;10.40;99.90;;;;;;5072913;28;20824;-66
2022/09/23 06:00:42;;;;;;;15.73;13.07;;;10.50;99.90;;;;;;5055143;28;20291;-66
2022/09/23 06:03:13;;;;;;;15.07;12.87;;;10.50;99.90;;;;;;5072944;28;20282;-66
2022/09/23 06:05:39;;;;;;;15.17;12.47;;;10.50;99.90;;;;;;5072553;28;20747;-66
2022/09/23 06:08:05;;;;;;;17.00;12.97;;;10.60;99.90;;;;;;5072953;28;20290;-66
2022/09/23 06:10:38;;;;;;;14.97;13.17;;;10.60;99.90;;;;;;5072575;28;20314;-66
2022/09/23 06:13:04;;;;;;;15.97;13.57;;;10.60;99.90;;;;;;5072858;28;20271;-66
2022/09/23 06:15:31;;;;;;;15.37;12.13;;;10.60;99.90;;;;;;5072561;28;20302;-66
2022/09/23 06:17:57;;;;;;;15.83;13.43;;;10.70;99.90;;;;;;5072839;28;20163;-66
2022/09/23 06:20:23;;;;;;;14.70;13.17;;;10.70;99.90;;;;;;5072973;28;20310;-66
2022/09/23 06:22:49;;;;;;;16.67;14.13;;;10.70;99.90;;;;;;5072494;28;20907;-66
2022/09/23 06:25:15;;;;;;;17.10;13.50;;;10.70;99.90;;;;;;5072813;28;20538;-66
2022/09/23 06:27:40;;;;;;;13.77;11.77;;;10.70;99.90;;;;;;5072525;28;20369;-66
2022/09/23 06:30:06;;;;;;;15.07;12.23;;;10.80;99.90;;;;;;5072666;28;20473;-66
2022/09/23 06:32:32;;;;;;;16.30;12.77;;;10.80;99.90;;;;;;5076252;28;20531;-67
2022/09/23 06:34:58;;;;;;;17.07;12.67;;;10.80;99.90;;;;;;5059008;28;20389;-66
2022/09/23 06:37:24;;;;;;;18.97;13.00;;;10.80;99.90;;;;;;5076467;28;20507;-66
2022/09/23 06:39:49;;;;;;;17.10;13.70;;;10.90;99.90;;;;;;5076509;28;20053;-66
2022/09/23 06:42:16;;;;;;;16.10;12.60;;;10.90;99.90;;;;;;5076744;28;20346;-66
2022/09/23 06:44:42;;;;;;;18.30;12.53;;;10.90;99.90;;;;;;5076273;28;20128;-66
2022/09/23 06:47:08;;;;;;;16.10;12.30;;;10.90;99.90;;;;;;5076531;28;20365;-66
2022/09/23 06:49:34;;;;;;;16.10;12.80;;;10.90;99.90;;;;;;5076307;28;20098;-67
2022/09/23 06:52:01;;;;;;;15.00;12.90;;;10.90;99.90;;;;;;5076674;28;20278;-66
2022/09/23 06:54:27;;;;;;;15.83;12.73;;;10.90;99.90;;;;;;5076424;28;20298;-66
2022/09/23 06:56:54;;;;;;;14.83;11.93;;;11.00;99.90;;;;;;5076055;28;20318;-66
2022/09/23 06:59:20;;;;;;;16.13;12.70;;;11.00;99.90;;;;;;5076330;28;20314;-66
2022/09/23 07:01:46;;;;;;;14.17;12.67;;;11.10;99.90;;;;;;5041440;28;20322;-66
2022/09/23 07:04:13;;;;;;;14.20;12.37;;;11.20;99.90;;;;;;5076217;28;20049;-66
2022/09/23 07:06:39;;;;;;;15.17;12.40;;;11.20;99.90;;;;;;5075897;28;20318;-66
2022/09/23 07:09:06;;;;;;;15.30;13.50;;;11.30;99.90;;;;;;5076167;28;20344;-66
2022/09/23 07:11:32;;;;;;;15.60;12.60;;;11.30;99.90;;;;;;5076093;28;20290;-66
2022/09/23 07:13:58;;;;;;;14.50;12.43;;;11.40;99.90;;;;;;5075641;28;20287;-66
2022/09/23 07:16:23;;;;;;;15.50;13.03;;;11.50;99.90;;;;;;5076279;28;20095;-65
2022/09/23 07:18:49;;;;;;;14.03;12.03;;;11.60;99.90;;;;;;5075681;28;20503;-65
2022/09/23 07:21:17;;;;;;;15.43;11.87;;;11.70;99.90;;;;;;5075996;28;20515;-66
2022/09/23 07:23:45;;;;;;;14.70;11.77;;;11.90;99.90;;;;;;5075528;28;20054;-66
2022/09/23 07:26:12;;;;;;;14.33;11.37;;;12.00;99.90;;;;;;5057914;28;20286;-66
2022/09/23 07:28:38;;;;;;;16.93;12.23;;;12.10;99.90;;;;;;5075465;28;20627;-66
2022/09/23 07:31:07;;;;;;;14.40;11.70;;;12.30;99.90;;;;;;5075710;28;20754;-66
2022/09/23 07:33:38;;;;;;;13.47;11.67;;;12.40;99.90;;;;;;5075701;28;20318;-66
2022/09/23 07:36:12;;;;;;;14.30;10.87;;;12.40;99.90;;;;;;5075629;28;20349;-66
2022/09/23 07:38:39;;;;;;;14.27;11.73;;;12.40;99.90;;;;;;5075595;28;20281;-68
2022/09/23 07:41:10;;;;;;;13.40;11.20;;;12.40;99.90;;;;;;5075572;28;20328;-66
2022/09/23 07:43:36;;;;;;;14.63;11.43;;;12.30;99.90;;;;;;5074968;28;20318;-65
2022/09/23 07:46:09;;;;;;;12.83;11.07;;;12.30;99.90;;;;;;5075119;28;20370;-66
2022/09/23 07:48:35;;;;;;;12.60;11.17;;;12.30;99.90;;;;;;5075670;28;20344;-66
2022/09/23 07:51:09;;;;;;;13.87;10.97;;;12.20;99.90;;;;;;5075044;28;20318;-66
2022/09/23 07:53:36;;;;;;;13.43;11.00;;;12.20;99.90;;;;;;5075296;28;20773;-65
2022/09/23 07:56:05;;;;;;;14.53;11.07;;;12.20;99.90;;;;;;5074886;28;20131;-66
2022/09/23 07:58:32;;;;;;;13.00;11.37;;;12.20;99.90;;;;;;5075262;28;20283;-65
2022/09/23 08:01:06;;;;;;;15.10;11.20;;;12.30;99.90;;;;;;5074897;28;20305;-66
2022/09/23 08:03:32;;;;;;;19.35;11.38;;;12.40;99.90;;;;;;5075270;28;20361;-66
2022/09/23 08:06:09;;;;;;;17.77;11.13;;;12.40;99.90;;;;;;5074820;28;20128;-65
2022/09/23 08:08:42;;;;;;;16.07;11.80;;;12.50;99.90;;;;;;5075042;28;20484;-66
2022/09/23 08:11:10;;;;;;;13.20;10.87;;;12.50;99.90;;;;;;5075400;28;20306;-65
2022/09/23 08:13:36;;;;;;;14.60;11.33;;;12.60;99.90;;;;;;5040447;28;20298;-65
2022/09/23 08:16:02;;;;;;;14.20;11.57;;;12.70;99.90;;;;;;5056809;28;20470;-66
2022/09/23 08:18:28;;;;;;;13.37;10.73;;;12.80;99.90;;;;;;5074887;28;20040;-66
2022/09/23 08:20:53;;;;;;;12.63;10.00;;;12.90;99.90;;;;;;5074517;28;20294;-66
2022/09/23 08:23:19;;;;;;;12.60;10.07;;;13.00;99.90;;;;;;5074804;28;20536;-65
2022/09/23 08:25:46;;;;;;;12.80;11.37;;;13.10;99.90;;;;;;5056873;28;20452;-66
2022/09/23 08:28:17;;;;;;;15.03;11.00;;;13.20;99.90;;;;;;5074710;28;20286;-66
2022/09/23 08:30:44;;;;;;;13.30;10.53;;;13.20;99.90;;;;;;5074688;28;20344;-65
2022/09/23 08:33:10;;;;;;;11.90;10.47;;;13.30;99.90;;;;;;5074656;28;20313;-65
2022/09/23 08:35:36;;;;;;;13.47;10.50;;;13.40;99.90;;;;;;5074629;28;20352;-65
2022/09/23 08:38:02;;;;;;;11.87;10.60;;;13.40;99.90;;;;;;5074387;28;20274;-65
2022/09/23 08:40:32;;;;;;;13.80;10.40;;;13.50;99.90;;;;;;5056890;28;20087;-68
2022/09/23 08:42:59;;;;;;;12.17;10.57;;;13.60;99.90;;;;;;5074159;28;20291;-66
2022/09/23 08:45:26;;;;;;;16.63;10.50;;;13.60;99.90;;;;;;5074479;28;20285;-65
2022/09/23 08:48:00;;;;;;;15.53;10.33;;;13.70;99.90;;;;;;5056389;28;20317;-65
2022/09/23 08:50:41;;;;;;;11.63;9.23;;;13.70;99.90;;;;;;5074506;28;20303;-65
2022/09/23 08:53:34;;;;;;;14.93;9.90;;;13.80;99.90;;;;;;5073990;28;20060;-65
2022/09/23 08:56:16;;;;;;;14.23;10.53;;;13.90;99.90;;;;;;5073280;28;20369;-66
2022/09/23 08:58:42;;;;;;;12.43;9.87;;;13.90;99.90;;;;;;5074153;28;20297;-68
2022/09/23 09:01:19;;;;;;;12.53;9.67;;;14.10;99.90;;;;;;5073815;28;20592;-66
2022/09/23 09:04:02;;;;;;;14.17;10.90;;;14.10;99.90;;;;;;5056221;28;20291;-65
2022/09/23 09:06:39;;;;;;;12.30;9.87;;;14.20;99.90;;;;;;5073862;28;20275;-66
2022/09/23 09:09:17;;;;;;;12.97;9.93;;;14.20;99.90;;;;;;5069729;28;20314;-66
2022/09/23 09:11:47;;;;;;;13.27;9.97;;;14.20;99.90;;;;;;5073708;28;20287;-65
2022/09/23 09:14:44;;;;;;;15.73;11.23;;;14.20;99.90;;;;;;5072927;28;20293;-66
2022/09/23 09:17:47;;;;;;;14.73;10.83;;;14.20;99.90;;;;;;5059337;28;20388;-68
2022/09/23 09:20:22;;;;;;;13.37;9.87;;;14.20;99.90;;;;;;5054393;28;20299;-67
2022/09/23 09:23:21;;;;;;;13.60;10.75;;;14.20;99.90;;;;;;5073790;28;20287;-66
2022/09/23 09:25:51;;;;;;;16.67;10.77;;;14.20;99.90;;;;;;5058986;28;20053;-66
2022/09/23 09:28:34;;;;;;;13.27;11.00;;;14.20;99.90;;;;;;5073818;28;20332;-66
2022/09/23 09:31:06;;;;;;;14.67;11.27;;;14.20;99.90;;;;;;5073171;28;20325;-66
2022/09/23 09:34:05;;;;;;;13.70;10.60;;;14.10;99.90;;;;;;5073472;28;20279;-66
2022/09/23 09:36:36;;;;;;;14.57;11.30;;;14.10;99.90;;;;;;5073445;28;20323;-66
2022/09/23 09:39:02;;;;;;;13.83;10.73;;;14.20;99.90;;;;;;5073006;28;20286;-66
2022/09/23 09:41:31;;;;;;;16.47;12.20;;;14.20;99.90;;;;;;5073267;28;20626;-67
2022/09/23 09:44:00;;;;;;;13.47;10.40;;;14.20;99.90;;;;;;5073015;28;20281;-65
2022/09/23 09:46:35;;;;;;;13.97;11.63;;;14.20;99.90;;;;;;5073352;28;20278;-65
2022/09/23 09:49:21;;;;;;;13.10;11.70;;;14.30;99.90;;;;;;5072984;28;20278;-68
2022/09/23 09:51:48;;;;;;;14.83;11.47;;;14.30;99.90;;;;;;5055730;28;20084;-68
2022/09/23 09:54:25;;;;;;;13.27;11.07;;;14.30;99.90;;;;;;5072733;28;20285;-68
2022/09/23 09:56:52;;;;;;;15.93;11.23;;;14.40;99.90;;;;;;5073436;28;20270;-68
2022/09/23 09:59:26;;;;;;;13.43;10.77;;;14.40;99.90;;;;;;5054894;28;20322;-68
2022/09/23 10:02:20;;;;;;;15.43;10.98;;;14.50;99.90;;;;;;5073077;28;20281;-68
2022/09/23 10:04:55;;;;;;;13.73;11.00;;;14.50;99.90;;;;;;5055292;28;20391;-68
2022/09/23 10:07:26;;;;;;;17.23;11.20;;;14.60;99.90;;;;;;5072803;28;20271;-64
2022/09/23 10:09:51;;;;;;;14.97;11.87;;;14.70;99.90;;;;;;5073049;28;20053;-68
2022/09/23 10:12:23;;;;;;;14.60;11.60;;;14.70;99.90;;;;;;5072211;28;20291;-69
2022/09/23 10:14:54;;;;;;;15.77;11.40;;;14.80;99.90;;;;;;5072657;28;20536;-68
2022/09/23 10:17:30;;;;;;;15.03;11.13;;;;;;;;;;5054926;28;20318;-65
2022/09/23 10:19:59;;;;;;;16.73;11.57;;;14.90;99.90;;;;;;5072757;28;20275;-67
2022/09/23 10:22:30;;;;;;;12.97;11.30;;;15.00;99.90;;;;;;5072987;28;20355;-68
2022/09/23 10:25:02;;;;;;;21.17;12.03;;;15.00;99.90;;;;;;5072743;28;20782;-71
2022/09/23 10:27:34;;;;;;;13.60;12.20;;;15.10;99.90;;;;;;5072748;28;20678;-64
2022/09/23 10:30:03;;;;;;;18.17;13.13;;;15.20;99.90;;;;;;5072710;28;20278;-65
2022/09/23 10:32:36;;;;;;;20.13;11.33;;;15.20;99.90;;;;;;5072778;28;20279;-65
2022/09/23 10:35:12;;;;;;;20.83;13.00;;;15.30;99.90;;;;;;5054612;28;20314;-66
2022/09/23 10:37:48;;;;;;;16.27;12.07;;;15.30;99.90;;;;;;5073147;28;20600;-65
2022/09/23 10:46:38;;;;;;;16.50;11.80;;;15.40;99.90;;;;;;5072406;28;20286;-68
2022/09/23 10:49:37;;;;;;;18.23;12.60;;;15.50;99.90;;;;;;5054693;28;20341;-66
2022/09/23 10:52:23;;;;;;;19.47;14.60;;;15.50;99.90;;;;;;5054464;28;20770;-66
2022/09/23 10:55:17;;;;;;;21.17;15.33;;;15.60;99.90;;;;;;5072697;28;20303;-66
2022/09/23 10:57:45;;;;;;;21.73;15.20;;;15.60;99.90;;;;;;5072748;28;20348;-66
2022/09/23 11:00:26;;;;;;;20.70;14.80;;;15.60;99.90;;;;;;5072585;28;20283;-66
2022/09/23 11:03:19;;;;;;;21.40;15.90;;;15.60;99.90;;;;;;5072563;28;20291;-66
2022/09/23 11:06:12;;;;;;;17.80;15.67;;;15.60;99.90;;;;;;5054590;28;20294;-65
2022/09/23 11:09:04;;;;;;;19.47;14.97;;;15.60;99.90;;;;;;5054272;28;20484;-64
2022/09/23 11:11:45;;;;;;;18.70;14.13;;;15.60;99.90;;;;;;5072773;28;20310;-66
2022/09/23 11:14:37;;;;;;;25.67;16.63;;;15.60;99.90;;;;;;5071928;28;20331;-65
2022/09/23 11:17:13;;;;;;;20.77;16.90;;;15.60;99.90;;;;;;5072188;28;20049;-68
2022/09/23 11:19:51;;;;;;;20.50;16.97;;;15.60;99.90;;;;;;5076044;28;20290;-66
2022/09/23 11:22:42;;;;;;;21.23;17.43;;;15.70;99.90;;;;;;5076017;28;20282;-66
2022/09/23 11:25:22;;;;;;;24.47;19.37;;;15.70;99.90;;;;;;5075687;28;20274;-63
2022/09/23 11:28:07;;;;;;;22.77;17.50;;;15.70;99.90;;;;;;5076051;28;20626;-64
2022/09/23 11:30:54;;;;;;;23.48;17.60;;;15.70;99.90;;;;;;5075963;28;20416;-65
2022/09/23 11:33:54;;;;;;;25.23;19.77;;;15.60;99.90;;;;;;5075535;28;20056;-66
2022/09/23 11:36:36;;;;;;;22.77;19.53;;;15.70;99.90;;;;;;5075340;28;20305;-65
2022/09/23 11:39:15;;;;;;;23.00;17.70;;;15.70;99.90;;;;;;5058868;28;20131;-69
2022/09/23 11:41:42;;;;;;;22.77;17.57;;;15.60;99.90;;;;;;5075383;28;20057;-66
2022/09/23 11:44:22;;;;;;;23.57;17.77;;;15.60;99.90;;;;;;5075073;28;20282;-66
2022/09/23 11:47:00;;;;;;;28.33;20.17;;;15.60;99.90;;;;;;5070577;28;20365;-66
2022/09/23 11:49:40;;;;;;;23.13;17.23;;;15.60;99.90;;;;;;5074692;28;20041;-66
2022/09/23 11:52:24;;;;;;;20.80;17.97;;;15.60;99.90;;;;;;5075229;28;20327;-67
2022/09/23 11:55:11;;;;;;;25.17;18.58;;;15.60;99.90;;;;;;5074716;28;20041;-66
2022/09/23 11:57:49;;;;;;;21.80;17.47;;;15.60;99.90;;;;;;5072664;28;20489;-66
2022/09/23 12:00:25;;;;;;;24.40;17.87;;;15.60;99.90;;;;;;5066974;28;20040;-67
2022/09/23 12:03:00;;;;;;;20.17;17.87;;;15.60;99.90;;;;;;5074841;28;20526;-67
2022/09/23 12:05:44;;;;;;;20.80;17.23;;;15.60;99.90;;;;;;5074856;28;20486;-67
2022/09/23 12:08:27;;;;;;;19.33;17.33;;;15.60;99.90;;;;;;5074845;28;20057;-68
2022/09/23 12:11:15;;;;;;;19.67;16.73;;;15.60;99.90;;;;;;5075161;28;20041;-67
2022/09/23 12:14:02;;;;;;;22.83;17.13;;;15.70;99.90;;;;;;5074866;28;20048;-67
2022/09/23 12:16:41;;;;;;;22.73;17.77;;;15.70;99.90;;;;;;5074723;28;20226;-68
2022/09/23 12:19:43;;;;;;;18.10;16.23;;;15.70;99.90;;;;;;5074854;28;20048;-67
2022/09/23 12:22:23;;;;;;;18.43;16.10;;;15.70;99.90;;;;;;5074853;28;20519;-67
2022/09/23 12:25:09;;;;;;;19.87;17.67;;;15.70;99.90;;;;;;5074812;28;20047;-67
2022/09/23 12:27:50;;;;;;;23.80;17.83;;;15.70;99.90;;;;;;5074432;28;20055;-67
2022/09/23 12:30:28;;;;;;;20.83;18.07;;;15.70;99.90;;;;;;5073895;28;20562;-69
2022/09/23 12:33:23;;;;;;;20.13;16.40;;;15.80;99.90;;;;;;5074887;28;20357;-68
2022/09/23 12:35:52;;;;;;;21.13;18.92;;;15.80;99.90;;;;;;5074604;28;20045;-66
2022/09/23 12:38:26;;;;;;;25.07;18.63;;;15.80;99.90;;;;;;5074218;28;20051;-66
2022/09/23 12:40:54;;;;;;;24.85;19.33;;;15.80;99.90;;;;;;5074500;28;20551;-66
2022/09/23 12:43:29;;;;;;;22.00;18.30;;;15.80;99.90;;;;;;5074259;28;20044;-68
2022/09/23 12:46:24;;;;;;;23.20;20.80;;;15.80;99.90;;;;;;5074458;28;20051;-67
2022/09/23 12:48:59;;;;;;;25.52;21.70;;;15.80;99.90;;;;;;5074651;28;20381;-67
2022/09/23 12:51:35;;;;;;;28.45;21.15;;;15.80;99.90;;;;;;5073974;28;20496;-67
2022/09/23 12:54:03;;;;;;;27.93;24.30;;;15.80;99.90;;;;;;5074225;28;20098;-67
2022/09/23 12:56:35;;;;;;;31.47;24.40;;;15.80;99.90;;;;;;5073492;28;20691;-67
2022/09/23 12:59:04;;;;;;;27.17;21.63;;;15.80;99.90;;;;;;5074182;28;20044;-70
2022/09/23 13:01:36;;;;;;;29.33;24.90;;;15.70;99.90;;;;;;5056102;28;20070;-67
2022/09/23 13:07:03;;;;;;;34.17;24.63;;;15.70;99.90;;;;;;5074157;28;20404;-71
2022/09/23 13:09:32;;;;;;;28.73;25.73;;;15.70;99.90;;;;;;5073669;28;20098;-68